createdAt,value
2017-08-10T00:00:27.546Z,14.88
2017-08-10T00:01:28.119Z,14.99
2017-08-10T00:02:28.693Z,14.96
2017-08-10T00:03:29.280Z,15.00
2017-08-10T00:04:29.854Z,15.00
2017-08-10T00:05:30.430Z,15.06
2017-08-10T00:06:31.005Z,14.99
2017-08-10T00:07:31.591Z,15.00
2017-08-10T00:08:32.166Z,15.07
2017-08-10T00:09:32.739Z,15.09
2017-08-10T00:10:33.315Z,15.03
2017-08-10T00:11:33.889Z,15.03
2017-08-10T00:12:34.465Z,15.02
2017-08-10T00:13:35.038Z,14.89
2017-08-10T00:14:35.613Z,14.85
2017-08-10T00:15:36.187Z,14.92
2017-08-10T00:16:36.760Z,14.99
2017-08-10T00:17:37.333Z,15.04
2017-08-10T00:18:37.908Z,15.14
2017-08-10T00:19:38.495Z,15.17
2017-08-10T00:20:39.070Z,15.19
2017-08-10T00:21:39.656Z,15.31
2017-08-10T00:22:40.232Z,15.15
2017-08-10T00:23:40.819Z,15.11
2017-08-10T00:24:41.396Z,15.14
2017-08-10T00:25:41.966Z,15.14
2017-08-10T00:26:42.541Z,15.09
2017-08-10T00:27:43.116Z,15.17
2017-08-10T00:28:43.691Z,15.18
2017-08-10T00:29:44.267Z,15.24
2017-08-10T00:30:44.840Z,15.14
2017-08-10T00:31:45.415Z,15.29
2017-08-10T00:32:45.988Z,15.40
2017-08-10T00:33:46.563Z,15.29
2017-08-10T00:34:47.136Z,15.25
2017-08-10T00:35:47.711Z,15.29
2017-08-10T00:36:48.286Z,15.17
2017-08-10T00:37:48.861Z,15.29
2017-08-10T00:38:49.437Z,15.42
2017-08-10T00:39:50.009Z,15.36
2017-08-10T00:40:50.582Z,15.39
2017-08-10T00:41:51.157Z,15.43
2017-08-10T00:42:51.730Z,15.49
2017-08-10T00:43:52.303Z,15.55
2017-08-10T00:44:52.877Z,15.57
2017-08-10T00:45:53.450Z,15.67
2017-08-10T00:46:54.024Z,15.61
2017-08-10T00:47:54.597Z,15.62
2017-08-10T00:48:55.171Z,15.75
2017-08-10T00:49:55.744Z,15.67
2017-08-10T00:50:56.320Z,15.51
2017-08-10T00:51:56.892Z,15.49
2017-08-10T00:52:57.478Z,15.43
2017-08-10T00:53:58.052Z,15.51
2017-08-10T00:54:58.628Z,15.62
2017-08-10T00:55:59.203Z,15.47
2017-08-10T00:56:59.779Z,15.42
2017-08-10T00:58:00.353Z,15.37
2017-08-10T00:59:00.926Z,15.21
2017-08-10T01:00:01.501Z,15.35
2017-08-10T01:01:02.075Z,15.27
2017-08-10T01:02:02.650Z,15.24
2017-08-10T01:03:03.235Z,15.39
2017-08-10T01:04:03.821Z,15.46
2017-08-10T01:05:04.398Z,15.37
2017-08-10T01:06:04.985Z,15.39
2017-08-10T01:07:05.559Z,15.40
2017-08-10T01:08:06.133Z,15.40
2017-08-10T01:09:06.707Z,15.40
2017-08-10T01:10:07.281Z,15.42
2017-08-10T01:11:07.855Z,15.51
2017-08-10T01:12:08.429Z,15.39
2017-08-10T01:13:09.004Z,15.39
2017-08-10T01:14:09.579Z,15.40
2017-08-10T01:15:10.153Z,15.40
2017-08-10T01:16:10.735Z,15.46
2017-08-10T01:17:11.313Z,15.44
2017-08-10T01:18:11.882Z,15.42
2017-08-10T01:19:12.455Z,15.40
2017-08-10T01:20:13.029Z,15.49
2017-08-10T01:21:13.607Z,15.42
2017-08-10T01:22:14.190Z,15.29
2017-08-10T01:23:14.766Z,15.37
2017-08-10T01:24:15.341Z,15.36
2017-08-10T01:25:15.917Z,15.46
2017-08-10T01:26:16.491Z,15.42
2017-08-10T01:27:17.067Z,15.43
2017-08-10T01:28:17.640Z,15.46
2017-08-10T01:29:18.216Z,15.54
2017-08-10T01:30:18.789Z,15.57
2017-08-10T01:31:19.364Z,15.54
2017-08-10T01:32:19.939Z,15.52
2017-08-10T01:33:20.514Z,15.44
2017-08-10T01:34:21.087Z,15.37
2017-08-10T01:35:21.674Z,15.36
2017-08-10T01:36:22.249Z,15.28
2017-08-10T01:37:22.822Z,15.27
2017-08-10T01:38:23.397Z,15.33
2017-08-10T01:39:23.971Z,15.28
2017-08-10T01:40:24.546Z,15.24
2017-08-10T01:41:25.125Z,15.31
2017-08-10T01:42:25.695Z,15.25
2017-08-10T01:43:26.267Z,15.11
2017-08-10T01:44:26.841Z,15.25
2017-08-10T01:45:27.415Z,15.17
2017-08-10T01:46:27.989Z,15.27
2017-08-10T01:47:28.562Z,15.28
2017-08-10T01:48:29.136Z,15.28
2017-08-10T01:49:29.709Z,15.25
2017-08-10T01:50:30.284Z,15.28
2017-08-10T01:51:30.871Z,15.27
2017-08-10T01:52:31.444Z,15.27
2017-08-10T01:53:32.019Z,15.15
2017-08-10T01:54:32.593Z,15.14
2017-08-10T01:55:33.167Z,15.15
2017-08-10T01:56:33.742Z,15.10
2017-08-10T01:57:34.329Z,15.19
2017-08-10T01:58:34.905Z,15.19
2017-08-10T01:59:35.478Z,15.17
2017-08-10T02:00:36.053Z,15.18
2017-08-10T02:01:36.626Z,15.17
2017-08-10T02:02:37.202Z,15.15
2017-08-10T02:03:37.776Z,15.07
2017-08-10T02:04:38.351Z,15.07
2017-08-10T02:05:38.924Z,15.11
2017-08-10T02:06:39.500Z,15.10
2017-08-10T02:07:40.084Z,15.09
2017-08-10T02:08:40.669Z,15.03
2017-08-10T02:09:41.243Z,15.11
2017-08-10T02:10:41.816Z,15.24
2017-08-10T02:11:42.389Z,15.10
2017-08-10T02:12:42.969Z,15.10
2017-08-10T02:13:43.536Z,15.09
2017-08-10T02:14:44.109Z,15.17
2017-08-10T02:15:44.682Z,15.10
2017-08-10T02:16:45.256Z,15.11
2017-08-10T02:17:45.829Z,15.21
2017-08-10T02:18:46.401Z,15.19
2017-08-10T02:19:46.975Z,15.17
2017-08-10T02:20:47.549Z,15.21
2017-08-10T02:21:48.122Z,15.03
2017-08-10T02:22:48.696Z,15.11
2017-08-10T02:23:49.269Z,15.11
2017-08-10T02:24:49.841Z,15.10
2017-08-10T02:25:50.415Z,15.09
2017-08-10T02:26:51.001Z,15.15
2017-08-10T02:27:51.573Z,15.11
2017-08-10T02:28:52.148Z,15.18
2017-08-10T02:29:52.722Z,15.17
2017-08-10T02:30:53.300Z,15.21
2017-08-10T02:31:53.871Z,15.18
2017-08-10T02:32:54.446Z,15.17
2017-08-10T02:33:55.019Z,15.25
2017-08-10T02:34:55.594Z,15.17
2017-08-10T02:35:56.168Z,15.19
2017-08-10T02:36:56.741Z,15.27
2017-08-10T02:37:57.315Z,15.14
2017-08-10T02:38:57.902Z,15.25
2017-08-10T02:39:58.476Z,15.28
2017-08-10T02:40:59.049Z,15.39
2017-08-10T02:41:59.624Z,15.24
2017-08-10T02:43:00.198Z,15.29
2017-08-10T02:44:00.773Z,15.27
2017-08-10T02:45:01.346Z,15.31
2017-08-10T02:46:01.921Z,15.25
2017-08-10T02:47:02.509Z,15.25
2017-08-10T02:48:03.082Z,15.19
2017-08-10T02:49:03.657Z,15.22
2017-08-10T02:50:04.231Z,15.19
2017-08-10T02:51:04.806Z,15.18
2017-08-10T02:52:05.381Z,15.06
2017-08-10T02:53:05.960Z,14.96
2017-08-10T02:54:06.542Z,14.97
2017-08-10T02:55:07.116Z,14.97
2017-08-10T02:56:07.691Z,15.04
2017-08-10T02:57:08.265Z,15.03
2017-08-10T02:58:08.849Z,15.15
2017-08-10T02:59:09.422Z,15.06
2017-08-10T03:00:09.997Z,15.07
2017-08-10T03:01:10.569Z,15.11
2017-08-10T03:02:11.143Z,15.11
2017-08-10T03:03:11.716Z,15.10
2017-08-10T03:04:12.290Z,15.11
2017-08-10T03:05:12.864Z,15.15
2017-08-10T03:06:13.438Z,15.15
2017-08-10T03:07:14.013Z,15.29
2017-08-10T03:08:14.587Z,15.36
2017-08-10T03:09:15.163Z,15.28
2017-08-10T03:10:15.737Z,15.33
2017-08-10T03:11:16.313Z,15.25
2017-08-10T03:12:16.886Z,15.21
2017-08-10T03:13:17.462Z,15.21
2017-08-10T03:14:18.036Z,15.17
2017-08-10T03:15:18.610Z,15.15
2017-08-10T03:16:19.184Z,15.10
2017-08-10T03:17:19.780Z,15.17
2017-08-10T03:18:20.337Z,15.09
2017-08-10T03:19:20.906Z,15.21
2017-08-10T03:20:21.480Z,15.11
2017-08-10T03:21:22.053Z,15.07
2017-08-10T03:22:22.627Z,15.10
2017-08-10T03:23:23.200Z,15.10
2017-08-10T03:24:23.773Z,15.19
2017-08-10T03:25:24.347Z,15.18
2017-08-10T03:26:24.920Z,15.18
2017-08-10T03:27:25.494Z,15.11
2017-08-10T03:28:26.067Z,15.15
2017-08-10T03:29:26.641Z,15.15
2017-08-10T03:30:27.216Z,15.11
2017-08-10T03:31:27.788Z,15.15
2017-08-10T03:32:28.361Z,15.33
2017-08-10T03:33:28.935Z,15.27
2017-08-10T03:34:29.509Z,15.31
2017-08-10T03:35:30.093Z,15.27
2017-08-10T03:36:30.669Z,15.15
2017-08-10T03:37:31.241Z,15.17
2017-08-10T03:38:31.816Z,15.25
2017-08-10T03:39:32.390Z,15.29
2017-08-10T03:40:32.966Z,15.36
2017-08-10T03:41:33.539Z,15.35
2017-08-10T03:42:34.114Z,15.36
2017-08-10T03:43:34.700Z,15.40
2017-08-10T03:44:35.275Z,15.35
2017-08-10T03:45:35.851Z,15.37
2017-08-10T03:46:36.426Z,15.36
2017-08-10T03:47:37.008Z,15.42
2017-08-10T03:48:37.584Z,15.31
2017-08-10T03:49:38.156Z,15.37
2017-08-10T03:50:38.732Z,15.43
2017-08-10T03:51:39.305Z,15.35
2017-08-10T03:52:39.882Z,15.42
2017-08-10T03:53:40.467Z,15.25
2017-08-10T03:54:41.039Z,15.40
2017-08-10T03:55:41.614Z,15.33
2017-08-10T03:56:42.188Z,15.37
2017-08-10T03:57:42.761Z,15.28
2017-08-10T03:58:43.335Z,15.44
2017-08-10T03:59:43.922Z,15.33
2017-08-10T04:00:44.495Z,15.37
2017-08-10T04:01:45.071Z,15.43
2017-08-10T04:02:45.645Z,15.43
2017-08-10T04:03:46.220Z,15.33
2017-08-10T04:04:46.794Z,15.37
2017-08-10T04:05:47.370Z,15.43
2017-08-10T04:06:47.942Z,15.42
2017-08-10T04:07:48.517Z,15.39
2017-08-10T04:08:49.100Z,15.36
2017-08-10T04:09:49.676Z,15.39
2017-08-10T04:10:50.252Z,15.49
2017-08-10T04:11:50.825Z,15.43
2017-08-10T04:12:51.400Z,15.58
2017-08-10T04:13:51.974Z,15.51
2017-08-10T04:14:52.549Z,15.49
2017-08-10T04:15:53.123Z,15.52
2017-08-10T04:16:53.703Z,15.51
2017-08-10T04:17:54.276Z,15.61
2017-08-10T04:18:54.861Z,15.52
2017-08-10T04:19:55.438Z,15.37
2017-08-10T04:20:56.013Z,15.35
2017-08-10T04:21:56.587Z,15.39
2017-08-10T04:22:57.162Z,15.37
2017-08-10T04:23:57.738Z,15.28
2017-08-10T04:24:58.313Z,15.31
2017-08-10T04:25:58.887Z,15.42
2017-08-10T04:26:59.462Z,15.36
2017-08-10T04:28:00.037Z,15.31
2017-08-10T04:29:00.610Z,15.37
2017-08-10T04:30:01.187Z,15.44
2017-08-10T04:31:01.764Z,15.36
2017-08-10T04:32:02.348Z,15.42
2017-08-10T04:33:02.919Z,15.35
2017-08-10T04:34:03.495Z,15.31
2017-08-10T04:35:04.078Z,15.43
2017-08-10T04:36:04.643Z,15.42
2017-08-10T04:37:05.218Z,15.42
2017-08-10T04:38:05.793Z,15.31
2017-08-10T04:39:06.367Z,15.42
2017-08-10T04:40:06.955Z,15.44
2017-08-10T04:41:07.529Z,15.46
2017-08-10T04:42:08.105Z,15.52
2017-08-10T04:43:08.693Z,15.55
2017-08-10T04:44:09.255Z,15.54
2017-08-10T04:45:09.830Z,15.52
2017-08-10T04:46:10.405Z,15.55
2017-08-10T04:47:10.980Z,15.52
2017-08-10T04:48:11.556Z,15.44
2017-08-10T04:49:12.133Z,15.35
2017-08-10T04:50:12.709Z,15.33
2017-08-10T04:51:13.295Z,15.27
2017-08-10T04:52:13.882Z,15.25
2017-08-10T04:53:14.457Z,15.33
2017-08-10T04:54:15.034Z,15.31
2017-08-10T04:55:15.610Z,15.25
2017-08-10T04:56:16.182Z,15.29
2017-08-10T04:57:16.756Z,15.28
2017-08-10T04:58:17.331Z,15.40
2017-08-10T04:59:17.906Z,15.36
2017-08-10T05:00:18.480Z,15.31
2017-08-10T05:01:19.056Z,15.44
2017-08-10T05:02:19.632Z,15.37
2017-08-10T05:03:20.209Z,15.44
2017-08-10T05:04:20.784Z,15.52
2017-08-10T05:05:21.361Z,15.44
2017-08-10T05:06:21.936Z,15.46
2017-08-10T05:07:22.512Z,15.43
2017-08-10T05:08:23.086Z,15.43
2017-08-10T05:09:23.660Z,15.46
2017-08-10T05:10:24.236Z,15.46
2017-08-10T05:11:24.811Z,15.55
2017-08-10T05:12:25.385Z,15.44
2017-08-10T05:13:25.959Z,15.43
2017-08-10T05:14:26.536Z,15.43
2017-08-10T05:15:27.112Z,15.31
2017-08-10T05:16:27.689Z,15.31
2017-08-10T05:17:28.265Z,15.37
2017-08-10T05:18:28.843Z,15.43
2017-08-10T05:19:29.418Z,15.39
2017-08-10T05:20:29.993Z,15.51
2017-08-10T05:21:30.570Z,15.55
2017-08-10T05:22:31.145Z,15.59
2017-08-10T05:23:31.734Z,15.61
2017-08-10T05:24:32.309Z,15.61
2017-08-10T05:25:32.885Z,15.68
2017-08-10T05:26:33.462Z,15.76
2017-08-10T05:27:34.038Z,15.67
2017-08-10T05:28:34.616Z,15.75
2017-08-10T05:29:35.203Z,15.77
2017-08-10T05:30:35.780Z,15.68
2017-08-10T05:31:36.362Z,15.77
2017-08-10T05:32:36.935Z,15.68
2017-08-10T05:33:37.512Z,15.82
2017-08-10T05:34:38.087Z,15.83
2017-08-10T05:35:38.664Z,15.77
2017-08-10T05:36:39.241Z,15.80
2017-08-10T05:37:39.817Z,15.76
2017-08-10T05:38:40.395Z,15.65
2017-08-10T05:39:40.971Z,15.67
2017-08-10T05:40:41.550Z,15.70
2017-08-10T05:41:42.125Z,15.73
2017-08-10T05:42:42.701Z,15.76
2017-08-10T05:43:43.277Z,15.79
2017-08-10T05:44:43.855Z,15.90
2017-08-10T05:45:44.434Z,15.94
2017-08-10T05:46:45.011Z,15.83
2017-08-10T05:47:45.588Z,15.76
2017-08-10T05:48:46.165Z,15.76
2017-08-10T05:49:46.742Z,15.77
2017-08-10T05:50:47.321Z,15.86
2017-08-10T05:51:47.911Z,15.92
2017-08-10T05:52:48.489Z,15.92
2017-08-10T05:53:49.068Z,15.98
2017-08-10T05:54:49.656Z,15.97
2017-08-10T05:55:50.234Z,15.94
2017-08-10T05:56:50.814Z,16.09
2017-08-10T05:57:51.391Z,16.24
2017-08-10T05:58:51.968Z,16.21
2017-08-10T05:59:52.545Z,16.31
2017-08-10T06:00:53.127Z,16.38
2017-08-10T06:01:53.702Z,16.42
2017-08-10T06:02:54.280Z,16.39
2017-08-10T06:03:54.861Z,16.23
2017-08-10T06:04:55.448Z,16.21
2017-08-10T06:05:56.025Z,16.24
2017-08-10T06:06:56.603Z,16.24
2017-08-10T06:07:57.181Z,16.24
2017-08-10T06:08:57.759Z,16.29
2017-08-10T06:09:58.338Z,16.26
2017-08-10T06:10:58.915Z,16.36
2017-08-10T06:11:59.492Z,16.43
2017-08-10T06:13:00.070Z,16.39
2017-08-10T06:14:00.649Z,16.49
2017-08-10T06:15:01.228Z,16.38
2017-08-10T06:16:01.804Z,16.28
2017-08-10T06:17:02.381Z,16.26
2017-08-10T06:18:02.971Z,16.31
2017-08-10T06:19:03.553Z,16.28
2017-08-10T06:20:04.127Z,16.31
2017-08-10T06:21:04.703Z,16.33
2017-08-10T06:22:05.283Z,16.38
2017-08-10T06:23:05.862Z,16.32
2017-08-10T06:24:06.443Z,16.41
2017-08-10T06:25:07.017Z,16.47
2017-08-10T06:26:07.593Z,16.65
2017-08-10T06:27:08.169Z,16.61
2017-08-10T06:28:08.749Z,16.84
2017-08-10T06:29:09.326Z,16.99
2017-08-10T06:30:09.905Z,17.02
2017-08-10T06:31:10.496Z,17.06
2017-08-10T06:32:11.073Z,17.05
2017-08-10T06:33:11.653Z,17.19
2017-08-10T06:34:12.243Z,17.19
2017-08-10T06:35:12.822Z,17.14
2017-08-10T06:36:13.398Z,17.11
2017-08-10T06:37:13.975Z,17.20
2017-08-10T06:38:14.554Z,17.19
2017-08-10T06:39:15.133Z,17.20
2017-08-10T06:40:15.723Z,17.27
2017-08-10T06:41:16.302Z,17.31
2017-08-10T06:42:16.881Z,17.39
2017-08-10T06:43:17.459Z,17.29
2017-08-10T06:44:18.036Z,17.29
2017-08-10T06:45:18.619Z,17.41
2017-08-10T06:46:19.194Z,17.52
2017-08-10T06:47:19.774Z,17.67
2017-08-10T06:48:20.351Z,17.52
2017-08-10T06:49:20.929Z,17.51
2017-08-10T06:50:21.509Z,17.38
2017-08-10T06:51:22.089Z,17.30
2017-08-10T06:52:22.666Z,17.38
2017-08-10T06:53:23.244Z,17.29
2017-08-10T06:54:23.822Z,17.31
2017-08-10T06:55:24.404Z,17.33
2017-08-10T06:56:24.981Z,17.33
2017-08-10T06:57:25.561Z,17.45
2017-08-10T06:58:26.139Z,17.42
2017-08-10T06:59:26.717Z,17.52
2017-08-10T07:00:27.297Z,17.51
2017-08-10T07:01:27.877Z,17.49
2017-08-10T07:02:28.456Z,17.46
2017-08-10T07:03:29.033Z,17.38
2017-08-10T07:04:29.611Z,17.49
2017-08-10T07:05:30.190Z,17.49
2017-08-10T07:06:30.769Z,17.54
2017-08-10T07:07:31.349Z,17.59
2017-08-10T07:08:31.927Z,17.51
2017-08-10T07:09:32.505Z,17.52
2017-08-10T07:10:33.084Z,17.42
2017-08-10T07:11:33.666Z,17.42
2017-08-10T07:12:34.243Z,17.38
2017-08-10T07:13:34.820Z,17.42
2017-08-10T07:14:35.397Z,17.46
2017-08-10T07:15:35.974Z,17.56
2017-08-10T07:16:36.565Z,17.59
2017-08-10T07:17:37.141Z,17.57
2017-08-10T07:18:37.719Z,17.54
2017-08-10T07:19:38.298Z,17.42
2017-08-10T07:20:38.878Z,17.45
2017-08-10T07:21:39.456Z,17.60
2017-08-10T07:22:40.034Z,17.68
2017-08-10T07:23:40.613Z,17.70
2017-08-10T07:24:41.191Z,17.70
2017-08-10T07:25:41.787Z,17.76
2017-08-10T07:26:42.360Z,17.82
2017-08-10T07:27:42.952Z,17.60
2017-08-10T07:28:43.529Z,17.64
2017-08-10T07:29:44.112Z,17.68
2017-08-10T07:30:44.687Z,17.71
2017-08-10T07:31:45.266Z,17.82
2017-08-10T07:32:45.844Z,17.70
2017-08-10T07:33:46.421Z,17.68
2017-08-10T07:34:47.005Z,17.79
2017-08-10T07:35:47.592Z,17.79
2017-08-10T07:36:48.171Z,17.83
2017-08-10T07:37:48.751Z,17.78
2017-08-10T07:38:49.331Z,17.72
2017-08-10T07:39:49.919Z,17.74
2017-08-10T07:40:50.499Z,17.85
2017-08-10T07:41:51.089Z,17.85
2017-08-10T07:42:51.669Z,17.83
2017-08-10T07:43:52.259Z,17.90
2017-08-10T07:44:52.838Z,17.94
2017-08-10T07:45:53.416Z,17.92
2017-08-10T07:46:53.995Z,17.97
2017-08-10T07:47:54.571Z,17.79
2017-08-10T07:48:55.150Z,17.87
2017-08-10T07:49:55.729Z,17.87
2017-08-10T07:50:56.309Z,17.85
2017-08-10T07:51:56.889Z,17.97
2017-08-10T07:52:57.470Z,17.72
2017-08-10T07:53:58.058Z,17.86
2017-08-10T07:54:58.638Z,17.94
2017-08-10T07:55:59.215Z,18.07
2017-08-10T07:56:59.793Z,18.10
2017-08-10T07:58:00.373Z,18.04
2017-08-10T07:59:00.951Z,18.07
2017-08-10T08:00:01.531Z,18.04
2017-08-10T08:01:02.122Z,18.10
2017-08-10T08:02:02.701Z,18.16
2017-08-10T08:03:03.280Z,18.10
2017-08-10T08:04:03.858Z,18.29
2017-08-10T08:05:04.437Z,18.25
2017-08-10T08:06:05.017Z,18.16
2017-08-10T08:07:05.596Z,18.13
2017-08-10T08:08:06.175Z,18.10
2017-08-10T08:09:06.755Z,18.13
2017-08-10T08:10:07.333Z,18.26
2017-08-10T08:11:07.913Z,18.23
2017-08-10T08:12:08.492Z,18.11
2017-08-10T08:13:09.082Z,18.05
2017-08-10T08:14:09.662Z,18.18
2017-08-10T08:15:10.240Z,18.23
2017-08-10T08:16:10.819Z,18.16
2017-08-10T08:17:11.398Z,18.29
2017-08-10T08:18:11.977Z,18.26
2017-08-10T08:19:12.557Z,18.19
2017-08-10T08:20:13.135Z,18.23
2017-08-10T08:21:13.714Z,18.26
2017-08-10T08:22:14.291Z,18.16
2017-08-10T08:23:14.870Z,18.26
2017-08-10T08:24:15.450Z,18.29
2017-08-10T08:25:16.029Z,18.26
2017-08-10T08:26:16.612Z,18.37
2017-08-10T08:27:17.199Z,18.23
2017-08-10T08:28:17.778Z,18.29
2017-08-10T08:29:18.358Z,18.34
2017-08-10T08:30:18.948Z,18.37
2017-08-10T08:31:19.530Z,18.34
2017-08-10T08:32:20.116Z,18.23
2017-08-10T08:33:20.697Z,18.31
2017-08-10T09:01:58.422Z,19.07
2017-08-10T09:02:59.001Z,19.11
2017-08-10T09:03:59.579Z,19.08
2017-08-10T09:05:00.158Z,19.16
2017-08-10T09:06:00.736Z,19.18
2017-08-10T09:07:01.317Z,19.29
2017-08-10T09:08:01.896Z,19.09
2017-08-10T09:09:02.487Z,18.96
2017-08-10T09:10:03.067Z,19.21
2017-08-10T09:11:03.646Z,19.26
2017-08-10T09:12:04.236Z,19.37
2017-08-10T09:13:04.816Z,19.29
2017-08-10T09:14:05.394Z,19.39
2017-08-10T09:15:05.973Z,19.27
2017-08-10T09:16:06.551Z,19.30
2017-08-10T09:17:07.130Z,19.21
2017-08-10T09:18:07.711Z,19.24
2017-08-10T09:19:08.290Z,19.26
2017-08-10T09:20:08.872Z,19.45
2017-08-10T09:21:09.453Z,19.52
2017-08-10T09:22:10.027Z,19.52
2017-08-10T09:23:10.608Z,19.55
2017-08-10T09:24:11.198Z,19.56
2017-08-10T09:25:11.779Z,19.44
2017-08-10T09:26:12.359Z,19.49
2017-08-10T09:27:12.938Z,19.69
2017-08-10T09:28:13.518Z,19.79
2017-08-10T09:29:14.106Z,19.89
2017-08-10T09:30:14.684Z,19.94
2017-08-10T09:31:15.263Z,20.04
2017-08-10T09:32:15.841Z,20.04
2017-08-10T09:33:16.419Z,20.22
2017-08-10T09:34:17.001Z,20.28
2017-08-10T09:35:17.579Z,20.44
2017-08-10T09:36:18.159Z,20.41
2017-08-10T09:37:18.738Z,20.44
2017-08-10T09:38:19.317Z,20.28
2017-08-10T09:39:19.897Z,20.22
2017-08-10T09:40:20.477Z,20.07
2017-08-10T09:41:21.057Z,20.10
2017-08-10T09:42:21.637Z,20.16
2017-08-10T09:43:22.216Z,20.09
2017-08-10T09:44:22.794Z,20.06
2017-08-10T09:45:23.374Z,20.00
2017-08-10T09:46:23.955Z,20.06
2017-08-10T09:47:24.533Z,20.09
2017-08-10T09:48:25.112Z,20.19
2017-08-10T09:49:25.691Z,20.19
2017-08-10T09:50:26.269Z,20.11
2017-08-10T09:51:26.850Z,20.13
2017-08-10T09:52:27.431Z,20.09
2017-08-10T09:53:28.010Z,20.06
2017-08-10T09:54:28.590Z,20.09
2017-08-10T09:55:29.172Z,20.04
2017-08-10T09:56:29.760Z,20.06
2017-08-10T09:57:30.339Z,20.19
2017-08-10T09:58:30.916Z,20.24
2017-08-10T09:59:31.496Z,20.26
2017-08-10T10:00:32.076Z,20.31
2017-08-10T10:01:32.656Z,20.34
2017-08-10T10:02:33.235Z,20.44
2017-08-10T10:03:33.815Z,20.48
2017-08-10T10:04:34.395Z,20.51
2017-08-10T10:05:34.974Z,20.37
2017-08-10T10:06:35.558Z,20.50
2017-08-10T10:07:36.133Z,20.67
2017-08-10T10:08:36.714Z,20.75
2017-08-10T10:09:37.293Z,20.59
2017-08-10T10:10:37.872Z,20.63
2017-08-10T10:11:38.452Z,20.59
2017-08-10T10:12:39.032Z,20.77
2017-08-10T10:13:39.623Z,20.75
2017-08-10T10:14:40.202Z,21.05
2017-08-10T10:15:40.783Z,21.20
2017-08-10T10:16:41.365Z,21.00
2017-08-10T10:17:41.947Z,20.93
2017-08-10T10:18:42.523Z,21.05
2017-08-10T10:19:43.101Z,21.27
2017-08-10T10:20:43.682Z,21.37
2017-08-10T10:21:44.262Z,21.30
2017-08-10T10:22:44.842Z,21.14
2017-08-10T10:23:45.421Z,21.06
2017-08-10T10:24:46.001Z,21.05
2017-08-10T10:25:46.582Z,21.17
2017-08-10T10:26:47.167Z,21.29
2017-08-10T10:27:47.744Z,21.43
2017-08-10T10:28:48.326Z,21.39
2017-08-10T10:29:48.905Z,21.50
2017-08-10T10:30:49.486Z,21.51
2017-08-10T10:31:50.066Z,21.39
2017-08-10T10:32:50.648Z,21.52
2017-08-10T10:33:51.230Z,21.77
2017-08-10T10:34:51.811Z,21.70
2017-08-10T10:35:52.392Z,21.48
2017-08-10T10:36:52.975Z,21.85
2017-08-10T10:37:53.556Z,22.10
2017-08-10T10:38:54.149Z,22.29
2017-08-10T10:39:54.731Z,22.26
2017-08-10T10:40:55.322Z,22.25
2017-08-10T10:41:55.899Z,22.28
2017-08-10T10:42:56.473Z,22.50
2017-08-10T10:43:57.051Z,22.65
2017-08-10T10:44:57.633Z,22.69
2017-08-10T10:45:58.213Z,22.57
2017-08-10T10:46:58.796Z,22.70
2017-08-10T10:47:59.372Z,22.81
2017-08-10T10:48:59.957Z,22.70
2017-08-10T10:50:00.546Z,22.59
2017-08-10T10:51:01.130Z,22.41
2017-08-10T10:52:01.712Z,22.63
2017-08-10T10:53:02.295Z,22.80
2017-08-10T10:54:02.887Z,22.93
2017-08-10T10:55:03.469Z,22.75
2017-08-10T10:56:04.061Z,22.51
2017-08-10T10:57:04.643Z,22.68
2017-08-10T10:58:05.224Z,22.66
2017-08-10T10:59:05.817Z,22.45
2017-08-10T11:00:06.395Z,22.48
2017-08-10T11:01:06.976Z,22.45
2017-08-10T11:02:07.554Z,22.51
2017-08-10T11:03:08.136Z,22.65
2017-08-10T11:04:08.717Z,22.75
2017-08-10T11:05:09.306Z,22.55
2017-08-10T11:06:09.888Z,22.63
2017-08-10T11:07:10.461Z,22.62
2017-08-10T11:08:11.041Z,22.48
2017-08-10T11:09:11.622Z,22.48
2017-08-10T11:10:12.204Z,22.57
2017-08-10T11:11:12.784Z,22.53
2017-08-10T11:12:13.365Z,22.59
2017-08-10T11:13:13.946Z,22.62
2017-08-10T11:14:14.527Z,22.57
2017-08-10T11:15:15.118Z,22.60
2017-08-10T11:16:15.699Z,22.84
2017-08-10T11:17:16.278Z,22.91
2017-08-10T11:18:16.859Z,22.85
2017-08-10T11:19:17.441Z,22.87
2017-08-10T11:20:18.024Z,22.80
2017-08-10T11:21:18.605Z,22.68
2017-08-10T11:22:19.184Z,22.62
2017-08-10T11:23:19.766Z,22.53
2017-08-10T11:24:20.348Z,22.57
2017-08-10T11:25:20.931Z,22.51
2017-08-10T11:26:21.511Z,22.54
2017-08-10T11:27:22.091Z,22.48
2017-08-10T11:28:22.672Z,22.47
2017-08-10T11:29:23.263Z,22.57
2017-08-10T11:30:23.843Z,22.47
2017-08-10T11:31:24.423Z,22.45
2017-08-10T11:32:25.004Z,22.44
2017-08-10T11:33:25.586Z,22.54
2017-08-10T11:34:26.179Z,22.51
2017-08-10T11:35:26.760Z,22.53
2017-08-10T11:36:27.343Z,22.68
2017-08-10T11:37:27.924Z,22.91
2017-08-10T11:38:28.517Z,22.98
2017-08-10T11:39:29.100Z,22.84
2017-08-10T11:40:29.696Z,22.93
2017-08-10T11:41:30.276Z,22.91
2017-08-10T11:42:30.859Z,22.69
2017-08-10T11:43:31.440Z,22.78
2017-08-10T11:44:32.056Z,22.81
2017-08-10T11:45:32.648Z,22.85
2017-08-10T11:46:33.228Z,22.75
2017-08-10T11:47:33.821Z,22.45
2017-08-10T11:48:34.403Z,22.63
2017-08-10T11:49:34.983Z,22.66
2017-08-10T11:50:35.564Z,22.54
2017-08-10T11:51:36.145Z,22.44
2017-08-10T11:52:36.725Z,22.69
2017-08-10T11:53:37.308Z,22.88
2017-08-10T11:54:37.887Z,22.87
2017-08-10T11:55:38.468Z,22.98
2017-08-10T11:56:39.049Z,22.44
2017-08-10T11:57:39.642Z,22.70
2017-08-10T11:58:40.224Z,22.81
2017-08-10T11:59:40.804Z,22.83
2017-08-10T12:00:41.395Z,22.81
2017-08-10T12:01:41.978Z,22.87
2017-08-10T12:02:42.556Z,22.93
2017-08-10T12:03:43.137Z,22.88
2017-08-10T12:04:43.720Z,22.85
2017-08-10T12:05:44.301Z,23.03
2017-08-10T12:06:44.884Z,22.80
2017-08-10T12:07:45.464Z,22.65
2017-08-10T12:08:46.044Z,22.65
2017-08-10T12:09:46.636Z,22.54
2017-08-10T12:10:47.216Z,22.72
2017-08-10T12:11:47.810Z,22.75
2017-08-10T12:12:48.402Z,22.85
2017-08-10T12:13:48.983Z,23.02
2017-08-10T12:14:49.564Z,22.88
2017-08-10T12:15:50.147Z,22.90
2017-08-10T12:16:50.726Z,23.00
2017-08-10T12:17:51.306Z,22.81
2017-08-10T12:18:51.894Z,22.63
2017-08-10T12:19:52.471Z,22.60
2017-08-10T12:20:53.064Z,22.41
2017-08-10T12:21:53.645Z,22.62
2017-08-10T12:22:54.225Z,22.69
2017-08-10T12:23:54.808Z,22.96
2017-08-10T12:24:55.388Z,22.65
2017-08-10T12:25:55.969Z,23.00
2017-08-10T12:26:56.551Z,23.15
2017-08-10T12:27:57.133Z,23.21
2017-08-10T12:28:57.716Z,23.37
2017-08-10T12:29:58.296Z,23.48
2017-08-10T12:30:58.877Z,23.13
2017-08-10T12:31:59.458Z,23.37
2017-08-10T12:33:00.047Z,23.13
2017-08-10T12:34:00.640Z,23.18
2017-08-10T12:35:01.223Z,23.06
2017-08-10T12:36:01.802Z,23.09
2017-08-10T12:37:02.383Z,22.99
2017-08-10T12:38:02.963Z,23.09
2017-08-10T12:39:03.551Z,22.98
2017-08-10T12:40:04.128Z,22.80
2017-08-10T12:41:04.709Z,22.91
2017-08-10T12:42:05.291Z,22.91
2017-08-10T12:43:05.872Z,22.99
2017-08-10T12:44:06.454Z,22.91
2017-08-10T12:45:07.036Z,22.84
2017-08-10T12:46:07.617Z,22.50
2017-08-10T12:47:08.200Z,22.20
2017-08-10T12:48:08.780Z,22.26
2017-08-10T12:49:09.360Z,22.13
2017-08-10T12:50:09.941Z,22.11
2017-08-10T12:51:10.524Z,22.41
2017-08-10T12:52:11.105Z,22.32
2017-08-10T12:53:11.685Z,22.38
2017-08-10T12:54:12.266Z,22.30
2017-08-10T12:55:12.847Z,22.39
2017-08-10T12:56:13.428Z,22.20
2017-08-10T12:57:14.011Z,22.30
2017-08-10T12:58:14.591Z,22.32
2017-08-10T12:59:15.185Z,22.38
2017-08-10T13:00:15.766Z,22.33
2017-08-10T13:01:16.348Z,22.20
2017-08-10T13:02:16.928Z,22.22
2017-08-10T13:03:17.511Z,22.28
2017-08-10T13:04:18.103Z,22.22
2017-08-10T13:05:18.684Z,22.04
2017-08-10T13:06:19.266Z,22.17
2017-08-10T13:07:19.848Z,22.44
2017-08-10T13:08:20.428Z,22.51
2017-08-10T13:09:21.009Z,22.47
2017-08-10T13:10:21.588Z,22.38
2017-08-10T13:11:22.170Z,22.35
2017-08-10T13:12:22.751Z,22.51
2017-08-10T13:13:23.334Z,22.48
2017-08-10T13:14:23.913Z,22.25
2017-08-10T13:15:24.493Z,22.28
2017-08-10T13:16:25.075Z,22.29
2017-08-10T13:17:25.655Z,22.22
2017-08-10T13:18:26.238Z,22.48
2017-08-10T13:19:26.818Z,22.39
2017-08-10T13:20:27.399Z,22.57
2017-08-10T13:21:27.980Z,22.43
2017-08-10T13:22:28.560Z,22.51
2017-08-10T13:23:29.142Z,22.59
2017-08-10T13:24:29.724Z,22.51
2017-08-10T13:25:30.309Z,22.55
2017-08-10T13:26:30.883Z,22.60
2017-08-10T13:27:31.463Z,22.63